sensor_id;sensor_type;location;lat;lon;timestamp;pressure;altitude;pressure_sealevel;temperature;humidity
35655;BME280;21773;50.010;19.972;2023-06-22T00:02:03;98906.13;;;25.48;77.58
35655;BME280;21773;50.010;19.972;2023-06-22T00:05:08;98915.50;;;25.38;78.90
35655;BME280;21773;50.010;19.972;2023-06-22T00:08:12;98912.59;;;25.43;78.33
35655;BME280;21773;50.010;19.972;2023-06-22T00:11:15;98937.75;;;25.42;78.56
35655;BME280;21773;50.010;19.972;2023-06-22T00:14:18;98949.03;;;25.54;78.51
35655;BME280;21773;50.010;19.972;2023-06-22T00:17:22;98954.28;;;25.64;78.21
35655;BME280;21773;50.010;19.972;2023-06-22T00:20:27;98955.13;;;25.73;77.43
35655;BME280;21773;50.010;19.972;2023-06-22T00:23:32;98955.31;;;25.77;77.94
35655;BME280;21773;50.010;19.972;2023-06-22T00:26:36;98956.78;;;25.83;77.28
35655;BME280;21773;50.010;19.972;2023-06-22T00:29:44;98946.25;;;25.85;77.53
35655;BME280;21773;50.010;19.972;2023-06-22T00:32:47;98944.78;;;25.87;77.13
35655;BME280;21773;50.010;19.972;2023-06-22T00:35:52;98942.03;;;25.87;77.30
35655;BME280;21773;50.010;19.972;2023-06-22T00:38:56;98930.47;;;25.85;77.50
35655;BME280;21773;50.010;19.972;2023-06-22T00:41:59;98934.69;;;25.83;77.93
35655;BME280;21773;50.010;19.972;2023-06-22T00:45:05;98937.47;;;25.83;78.62
35655;BME280;21773;50.010;19.972;2023-06-22T00:48:09;98915.28;;;25.66;79.69
35655;BME280;21773;50.010;19.972;2023-06-22T00:51:16;98916.13;;;25.66;81.59
35655;BME280;21773;50.010;19.972;2023-06-22T00:54:20;98911.63;;;25.48;83.33
35655;BME280;21773;50.010;19.972;2023-06-22T00:57:28;98916.44;;;25.34;84.13
35655;BME280;21773;50.010;19.972;2023-06-22T01:00:31;98906.69;;;25.28;84.58
35655;BME280;21773;50.010;19.972;2023-06-22T01:03:35;98903.25;;;25.22;84.22
35655;BME280;21773;50.010;19.972;2023-06-22T01:06:46;98898.31;;;25.11;85.19
35655;BME280;21773;50.010;19.972;2023-06-22T01:09:59;98907.22;;;25.08;85.65
35655;BME280;21773;50.010;19.972;2023-06-22T01:13:09;98908.03;;;25.08;85.72
35655;BME280;21773;50.010;19.972;2023-06-22T01:16:20;98903.97;;;25.06;86.13
35655;BME280;21773;50.010;19.972;2023-06-22T01:19:37;98905.38;;;24.94;87.07
35655;BME280;21773;50.010;19.972;2023-06-22T01:23:02;98906.63;;;24.88;87.16
35655;BME280;21773;50.010;19.972;2023-06-22T01:26:18;98898.91;;;24.77;87.51
35655;BME280;21773;50.010;19.972;2023-06-22T01:29:24;98898.81;;;24.68;87.92
35655;BME280;21773;50.010;19.972;2023-06-22T01:32:31;98909.38;;;24.66;88.43
35655;BME280;21773;50.010;19.972;2023-06-22T01:35:35;98901.09;;;24.66;88.17
35655;BME280;21773;50.010;19.972;2023-06-22T01:38:40;98904.84;;;24.70;87.61
35655;BME280;21773;50.010;19.972;2023-06-22T01:41:47;98910.38;;;24.70;87.81
35655;BME280;21773;50.010;19.972;2023-06-22T01:44:53;98919.16;;;24.72;87.52
35655;BME280;21773;50.010;19.972;2023-06-22T01:47:57;98914.63;;;24.76;87.68
35655;BME280;21773;50.010;19.972;2023-06-22T01:51:01;98925.84;;;24.80;87.46
35655;BME280;21773;50.010;19.972;2023-06-22T01:54:06;98914.16;;;24.83;87.60
35655;BME280;21773;50.010;19.972;2023-06-22T01:57:10;98921.31;;;24.84;87.10
35655;BME280;21773;50.010;19.972;2023-06-22T02:00:20;98917.75;;;24.83;86.67
35655;BME280;21773;50.010;19.972;2023-06-22T02:03:30;98920.31;;;24.80;85.93
35655;BME280;21773;50.010;19.972;2023-06-22T02:06:37;98915.13;;;24.78;85.56
35655;BME280;21773;50.010;19.972;2023-06-22T02:09:45;98921.41;;;24.70;85.99
35655;BME280;21773;50.010;19.972;2023-06-22T02:12:51;98917.94;;;24.65;86.60
35655;BME280;21773;50.010;19.972;2023-06-22T02:15:56;98911.63;;;24.64;86.30
35655;BME280;21773;50.010;19.972;2023-06-22T02:19:02;98911.56;;;24.55;86.93
35655;BME280;21773;50.010;19.972;2023-06-22T02:22:08;98911.69;;;24.50;86.91
35655;BME280;21773;50.010;19.972;2023-06-22T02:25:11;98918.13;;;24.46;86.25
35655;BME280;21773;50.010;19.972;2023-06-22T02:28:15;98917.13;;;24.42;86.19
35655;BME280;21773;50.010;19.972;2023-06-22T02:31:21;98920.38;;;24.44;85.75
35655;BME280;21773;50.010;19.972;2023-06-22T02:34:24;98919.56;;;24.43;85.36
35655;BME280;21773;50.010;19.972;2023-06-22T02:37:28;98938.88;;;24.43;85.69
35655;BME280;21773;50.010;19.972;2023-06-22T02:40:31;98939.06;;;24.47;85.52
35655;BME280;21773;50.010;19.972;2023-06-22T02:43:35;98934.25;;;24.52;84.96
35655;BME280;21773;50.010;19.972;2023-06-22T02:46:39;98934.25;;;24.52;85.00
35655;BME280;21773;50.010;19.972;2023-06-22T02:49:43;98939.13;;;24.55;84.69
35655;BME280;21773;50.010;19.972;2023-06-22T02:52:48;98939.50;;;24.63;84.88
35655;BME280;21773;50.010;19.972;2023-06-22T02:55:52;98942.44;;;24.66;85.40
35655;BME280;21773;50.010;19.972;2023-06-22T02:58:55;98950.41;;;24.68;85.03
35655;BME280;21773;50.010;19.972;2023-06-22T03:02:09;98951.03;;;24.65;85.06
35655;BME280;21773;50.010;19.972;2023-06-22T03:05:14;98956.53;;;24.65;84.46
35655;BME280;21773;50.010;19.972;2023-06-22T03:08:21;98955.03;;;24.58;84.53
35655;BME280;21773;50.010;19.972;2023-06-22T03:11:24;98955.97;;;24.54;84.80
35655;BME280;21773;50.010;19.972;2023-06-22T03:14:28;98949.13;;;24.51;84.06
35655;BME280;21773;50.010;19.972;2023-06-22T03:17:33;98957.91;;;24.53;84.61
35655;BME280;21773;50.010;19.972;2023-06-22T03:20:37;98960.59;;;24.45;85.77
35655;BME280;21773;50.010;19.972;2023-06-22T03:23:43;98949.59;;;24.31;86.17
35655;BME280;21773;50.010;19.972;2023-06-22T03:26:46;98968.47;;;24.38;86.10
35655;BME280;21773;50.010;19.972;2023-06-22T03:29:50;98972.34;;;24.37;86.09
35655;BME280;21773;50.010;19.972;2023-06-22T03:32:55;98964.19;;;24.32;85.56
35655;BME280;21773;50.010;19.972;2023-06-22T03:36:00;98976.41;;;24.39;85.22
35655;BME280;21773;50.010;19.972;2023-06-22T03:39:04;98954.81;;;24.19;85.66
35655;BME280;21773;50.010;19.972;2023-06-22T03:42:07;98977.47;;;24.30;86.03
35655;BME280;21773;50.010;19.972;2023-06-22T03:45:11;98982.16;;;24.29;85.91
35655;BME280;21773;50.010;19.972;2023-06-22T03:48:16;98978.47;;;24.34;85.60
35655;BME280;21773;50.010;19.972;2023-06-22T03:51:20;98984.59;;;24.31;85.45
35655;BME280;21773;50.010;19.972;2023-06-22T03:54:23;98981.47;;;24.24;85.93
35655;BME280;21773;50.010;19.972;2023-06-22T03:57:27;98984.22;;;24.24;85.76
35655;BME280;21773;50.010;19.972;2023-06-22T04:00:30;99003.38;;;24.15;86.23
35655;BME280;21773;50.010;19.972;2023-06-22T04:03:35;99002.88;;;24.13;86.05
35655;BME280;21773;50.010;19.972;2023-06-22T04:06:38;99001.88;;;24.09;86.48
35655;BME280;21773;50.010;19.972;2023-06-22T04:09:42;99001.44;;;24.15;86.27
35655;BME280;21773;50.010;19.972;2023-06-22T04:12:47;98996.25;;;24.14;86.33
35655;BME280;21773;50.010;19.972;2023-06-22T04:15:50;99000.88;;;24.19;86.89
35655;BME280;21773;50.010;19.972;2023-06-22T04:18:55;99001.13;;;24.31;86.37
35655;BME280;21773;50.010;19.972;2023-06-22T04:21:59;99006.47;;;24.27;86.26
35655;BME280;21773;50.010;19.972;2023-06-22T04:25:02;99006.03;;;24.34;86.25
35655;BME280;21773;50.010;19.972;2023-06-22T04:28:06;99006.72;;;24.39;86.28
35655;BME280;21773;50.010;19.972;2023-06-22T04:31:14;99014.78;;;24.49;86.36
35655;BME280;21773;50.010;19.972;2023-06-22T04:34:19;99015.88;;;24.62;85.71
35655;BME280;21773;50.010;19.972;2023-06-22T04:37:22;99013.06;;;24.76;85.26
35655;BME280;21773;50.010;19.972;2023-06-22T04:40:26;99019.78;;;24.83;84.84
35655;BME280;21773;50.010;19.972;2023-06-22T04:43:30;99003.34;;;24.78;84.79
35655;BME280;21773;50.010;19.972;2023-06-22T04:46:33;99018.25;;;24.91;84.11
35655;BME280;21773;50.010;19.972;2023-06-22T04:49:41;99023.66;;;25.18;83.54
35655;BME280;21773;50.010;19.972;2023-06-22T04:52:45;99035.81;;;25.17;82.92
35655;BME280;21773;50.010;19.972;2023-06-22T04:55:48;99037.31;;;25.45;82.13
35655;BME280;21773;50.010;19.972;2023-06-22T04:58:51;99030.75;;;25.55;81.59
35655;BME280;21773;50.010;19.972;2023-06-22T05:02:01;99030.22;;;25.75;80.80
35655;BME280;21773;50.010;19.972;2023-06-22T05:05:06;99023.66;;;25.71;80.01
35655;BME280;21773;50.010;19.972;2023-06-22T05:08:11;99022.50;;;25.95;79.73
35655;BME280;21773;50.010;19.972;2023-06-22T05:11:14;99034.66;;;25.94;78.66
35655;BME280;21773;50.010;19.972;2023-06-22T05:14:18;99035.38;;;26.08;78.33
35655;BME280;21773;50.010;19.972;2023-06-22T05:17:22;99034.09;;;26.14;78.51
35655;BME280;21773;50.010;19.972;2023-06-22T05:20:26;99032.69;;;26.25;77.33
35655;BME280;21773;50.010;19.972;2023-06-22T05:23:30;99025.22;;;26.34;75.85
35655;BME280;21773;50.010;19.972;2023-06-22T05:26:34;99045.28;;;26.57;75.46
35655;BME280;21773;50.010;19.972;2023-06-22T05:29:38;99039.75;;;26.65;74.23
35655;BME280;21773;50.010;19.972;2023-06-22T05:32:41;99045.31;;;26.83;74.08
35655;BME280;21773;50.010;19.972;2023-06-22T05:35:48;99036.53;;;26.89;73.55
35655;BME280;21773;50.010;19.972;2023-06-22T05:38:51;99038.16;;;26.99;72.92
35655;BME280;21773;50.010;19.972;2023-06-22T05:41:55;99036.22;;;27.08;73.01
35655;BME280;21773;50.010;19.972;2023-06-22T05:44:58;99051.66;;;27.17;72.32
35655;BME280;21773;50.010;19.972;2023-06-22T05:48:03;99049.06;;;27.30;71.93
35655;BME280;21773;50.010;19.972;2023-06-22T05:51:08;99055.41;;;27.30;71.73
35655;BME280;21773;50.010;19.972;2023-06-22T05:54:11;99054.28;;;27.31;70.97
35655;BME280;21773;50.010;19.972;2023-06-22T05:57:17;99056.53;;;27.46;71.60
35655;BME280;21773;50.010;19.972;2023-06-22T06:00:21;99058.78;;;27.62;70.84
35655;BME280;21773;50.010;19.972;2023-06-22T06:03:25;99059.59;;;27.79;70.11
35655;BME280;21773;50.010;19.972;2023-06-22T06:06:32;99065.41;;;27.86;69.75
35655;BME280;21773;50.010;19.972;2023-06-22T06:09:39;99073.34;;;28.05;69.57
35655;BME280;21773;50.010;19.972;2023-06-22T06:12:42;99081.09;;;28.29;67.93
35655;BME280;21773;50.010;19.972;2023-06-22T06:15:46;99081.22;;;28.62;66.87
35655;BME280;21773;50.010;19.972;2023-06-22T06:18:49;99080.63;;;28.85;65.59
35655;BME280;21773;50.010;19.972;2023-06-22T06:21:54;99077.25;;;29.01;63.20
35655;BME280;21773;50.010;19.972;2023-06-22T06:24:57;99086.09;;;29.15;63.55
35655;BME280;21773;50.010;19.972;2023-06-22T06:28:01;99082.22;;;29.28;63.61
35655;BME280;21773;50.010;19.972;2023-06-22T06:31:05;99083.34;;;29.36;61.58
35655;BME280;21773;50.010;19.972;2023-06-22T06:34:09;99087.84;;;29.61;62.56
35655;BME280;21773;50.010;19.972;2023-06-22T06:37:14;99098.66;;;29.87;61.53
35655;BME280;21773;50.010;19.972;2023-06-22T06:40:18;99097.81;;;29.95;60.01
35655;BME280;21773;50.010;19.972;2023-06-22T06:43:22;99099.00;;;30.18;60.24
35655;BME280;21773;50.010;19.972;2023-06-22T06:46:26;99092.28;;;30.43;59.43
35655;BME280;21773;50.010;19.972;2023-06-22T06:49:30;99083.38;;;30.62;58.35
35655;BME280;21773;50.010;19.972;2023-06-22T06:52:35;99084.28;;;30.78;57.43
35655;BME280;21773;50.010;19.972;2023-06-22T06:55:40;99085.63;;;30.96;58.05
35655;BME280;21773;50.010;19.972;2023-06-22T06:58:43;99088.38;;;31.21;56.00
35655;BME280;21773;50.010;19.972;2023-06-22T07:01:47;99093.84;;;31.17;55.09
35655;BME280;21773;50.010;19.972;2023-06-22T07:04:51;99095.81;;;31.17;55.55
35655;BME280;21773;50.010;19.972;2023-06-22T07:07:56;99087.56;;;31.20;55.52
35655;BME280;21773;50.010;19.972;2023-06-22T07:10:59;99078.63;;;31.27;55.02
35655;BME280;21773;50.010;19.972;2023-06-22T07:14:03;99077.06;;;31.42;55.32
35655;BME280;21773;50.010;19.972;2023-06-22T07:17:06;99088.09;;;31.66;54.50
35655;BME280;21773;50.010;19.972;2023-06-22T07:20:11;99076.53;;;31.79;52.97
35655;BME280;21773;50.010;19.972;2023-06-22T07:23:16;99086.63;;;32.00;53.50
35655;BME280;21773;50.010;19.972;2023-06-22T07:26:20;99072.88;;;32.22;53.27
35655;BME280;21773;50.010;19.972;2023-06-22T07:29:23;99072.53;;;32.40;51.30
35655;BME280;21773;50.010;19.972;2023-06-22T07:32:27;99074.56;;;32.58;51.31
35655;BME280;21773;50.010;19.972;2023-06-22T07:35:31;99070.97;;;32.74;51.24
35655;BME280;21773;50.010;19.972;2023-06-22T07:38:36;99070.31;;;32.99;50.40
35655;BME280;21773;50.010;19.972;2023-06-22T07:41:40;99064.69;;;33.15;48.61
35655;BME280;21773;50.010;19.972;2023-06-22T07:44:43;99065.81;;;33.30;48.61
35655;BME280;21773;50.010;19.972;2023-06-22T07:47:47;99062.44;;;33.40;48.97
35655;BME280;21773;50.010;19.972;2023-06-22T07:50:50;99054.41;;;33.38;47.33
35655;BME280;21773;50.010;19.972;2023-06-22T07:53:56;99062.94;;;33.45;48.32
35655;BME280;21773;50.010;19.972;2023-06-22T07:57:00;99069.69;;;33.64;48.10
35655;BME280;21773;50.010;19.972;2023-06-22T08:00:05;99076.41;;;34.01;46.44
35655;BME280;21773;50.010;19.972;2023-06-22T08:03:14;99075.25;;;34.25;45.88
35655;BME280;21773;50.010;19.972;2023-06-22T08:06:17;99071.97;;;34.46;44.11
35655;BME280;21773;50.010;19.972;2023-06-22T08:09:22;99081.75;;;34.82;44.09
35655;BME280;21773;50.010;19.972;2023-06-22T08:12:26;99075.69;;;35.06;43.11
35655;BME280;21773;50.010;19.972;2023-06-22T08:15:29;99085.59;;;35.26;43.01
35655;BME280;21773;50.010;19.972;2023-06-22T08:18:33;99083.88;;;35.48;41.21
35655;BME280;21773;50.010;19.972;2023-06-22T08:21:37;99069.22;;;35.65;41.41
35655;BME280;21773;50.010;19.972;2023-06-22T08:24:42;99076.69;;;35.87;39.58
35655;BME280;21773;50.010;19.972;2023-06-22T08:27:46;99084.94;;;36.10;39.43
35655;BME280;21773;50.010;19.972;2023-06-22T08:30:50;99086.03;;;36.39;38.75
35655;BME280;21773;50.010;19.972;2023-06-22T08:33:53;99080.06;;;36.44;38.54
35655;BME280;21773;50.010;19.972;2023-06-22T08:36:57;99089.19;;;36.30;38.17
35655;BME280;21773;50.010;19.972;2023-06-22T08:40:03;99086.63;;;36.15;38.25
35655;BME280;21773;50.010;19.972;2023-06-22T08:43:07;99080.03;;;36.00;37.11
35655;BME280;21773;50.010;19.972;2023-06-22T08:46:11;99077.31;;;35.67;37.88
35655;BME280;21773;50.010;19.972;2023-06-22T08:49:15;99087.38;;;35.71;39.16
35655;BME280;21773;50.010;19.972;2023-06-22T08:52:18;99085.09;;;35.50;38.66
35655;BME280;21773;50.010;19.972;2023-06-22T08:55:23;99095.34;;;35.39;38.31
35655;BME280;21773;50.010;19.972;2023-06-22T08:58:26;99096.69;;;35.49;38.65
35655;BME280;21773;50.010;19.972;2023-06-22T09:01:30;99101.38;;;35.71;40.01
35655;BME280;21773;50.010;19.972;2023-06-22T09:04:33;99094.81;;;35.93;37.92
35655;BME280;21773;50.010;19.972;2023-06-22T09:07:38;99097.53;;;36.23;38.08
35655;BME280;21773;50.010;19.972;2023-06-22T09:10:43;99092.03;;;36.41;36.49
35655;BME280;21773;50.010;19.972;2023-06-22T09:13:46;99080.63;;;36.16;37.52
35655;BME280;21773;50.010;19.972;2023-06-22T09:16:49;99086.78;;;35.92;37.59
35655;BME280;21773;50.010;19.972;2023-06-22T09:19:53;99097.44;;;35.76;38.34
35655;BME280;21773;50.010;19.972;2023-06-22T09:22:56;99087.59;;;35.59;38.35
35655;BME280;21773;50.010;19.972;2023-06-22T09:26:01;99090.28;;;35.82;38.80
35655;BME280;21773;50.010;19.972;2023-06-22T09:29:06;99085.06;;;36.21;37.97
35655;BME280;21773;50.010;19.972;2023-06-22T09:32:09;99092.09;;;36.44;36.44
35655;BME280;21773;50.010;19.972;2023-06-22T09:35:12;99089.53;;;36.76;35.83
35655;BME280;21773;50.010;19.972;2023-06-22T09:38:16;99078.06;;;37.06;34.96
35655;BME280;21773;50.010;19.972;2023-06-22T09:41:21;99082.16;;;37.16;34.92
35655;BME280;21773;50.010;19.972;2023-06-22T09:44:25;99086.09;;;37.04;34.60
35655;BME280;21773;50.010;19.972;2023-06-22T09:47:29;99089.66;;;36.98;34.52
35655;BME280;21773;50.010;19.972;2023-06-22T09:50:32;99085.00;;;37.23;35.14
35655;BME280;21773;50.010;19.972;2023-06-22T09:53:36;99085.97;;;37.55;34.03
35655;BME280;21773;50.010;19.972;2023-06-22T09:56:41;99073.03;;;37.44;34.29
35655;BME280;21773;50.010;19.972;2023-06-22T09:59:44;99077.88;;;37.47;35.06
35655;BME280;21773;50.010;19.972;2023-06-22T10:02:51;99077.84;;;37.40;34.01
35655;BME280;21773;50.010;19.972;2023-06-22T10:05:55;99071.34;;;37.21;33.50
35655;BME280;21773;50.010;19.972;2023-06-22T10:08:58;99078.44;;;37.05;34.81
35655;BME280;21773;50.010;19.972;2023-06-22T10:12:03;99074.81;;;36.94;34.38
35655;BME280;21773;50.010;19.972;2023-06-22T10:15:07;99071.47;;;36.74;35.03
35655;BME280;21773;50.010;19.972;2023-06-22T10:18:11;99067.84;;;36.70;35.62
35655;BME280;21773;50.010;19.972;2023-06-22T10:21:14;99069.31;;;36.57;34.83
35655;BME280;21773;50.010;19.972;2023-06-22T10:24:18;99068.44;;;36.45;35.30
35655;BME280;21773;50.010;19.972;2023-06-22T10:27:23;99064.41;;;36.46;35.68
35655;BME280;21773;50.010;19.972;2023-06-22T10:30:26;99070.81;;;36.40;35.50
35655;BME280;21773;50.010;19.972;2023-06-22T10:33:30;99071.09;;;36.28;36.04
35655;BME280;21773;50.010;19.972;2023-06-22T10:36:34;99073.41;;;36.15;36.64
35655;BME280;21773;50.010;19.972;2023-06-22T10:39:37;99063.69;;;36.13;35.94
35655;BME280;21773;50.010;19.972;2023-06-22T10:42:42;99061.59;;;36.43;35.14
35655;BME280;21773;50.010;19.972;2023-06-22T10:45:46;99053.78;;;36.70;36.18
35655;BME280;21773;50.010;19.972;2023-06-22T10:48:49;99049.06;;;36.92;33.89
35655;BME280;21773;50.010;19.972;2023-06-22T10:51:57;99048.84;;;37.18;33.38
35655;BME280;21773;50.010;19.972;2023-06-22T10:55:01;99040.03;;;37.23;33.05
35655;BME280;21773;50.010;19.972;2023-06-22T10:58:06;99032.41;;;37.23;33.77
35655;BME280;21773;50.010;19.972;2023-06-22T11:01:10;99016.72;;;37.19;33.33
35655;BME280;21773;50.010;19.972;2023-06-22T11:04:33;99030.41;;;37.31;33.99
35655;BME280;21773;50.010;19.972;2023-06-22T11:07:37;99030.34;;;37.17;33.47
35655;BME280;21773;50.010;19.972;2023-06-22T11:10:47;99027.47;;;37.03;32.83
35655;BME280;21773;50.010;19.972;2023-06-22T11:13:52;99035.94;;;37.10;33.62
35655;BME280;21773;50.010;19.972;2023-06-22T11:16:56;99019.09;;;37.13;33.44
35655;BME280;21773;50.010;19.972;2023-06-22T11:20:00;99014.97;;;36.93;32.91
35655;BME280;21773;50.010;19.972;2023-06-22T11:23:03;99015.53;;;37.27;33.71
35655;BME280;21773;50.010;19.972;2023-06-22T11:26:07;99020.91;;;37.74;33.10
35655;BME280;21773;50.010;19.972;2023-06-22T11:29:12;99023.34;;;37.97;32.42
35655;BME280;21773;50.010;19.972;2023-06-22T11:32:28;99015.66;;;37.73;32.19
35655;BME280;21773;50.010;19.972;2023-06-22T11:35:32;99010.41;;;37.54;32.27
35655;BME280;21773;50.010;19.972;2023-06-22T11:38:35;99012.75;;;37.45;32.73
35655;BME280;21773;50.010;19.972;2023-06-22T11:41:41;99007.63;;;37.61;32.26
35655;BME280;21773;50.010;19.972;2023-06-22T11:44:45;99011.69;;;37.92;32.30
35655;BME280;21773;50.010;19.972;2023-06-22T11:47:49;99004.41;;;37.98;31.56
35655;BME280;21773;50.010;19.972;2023-06-22T11:50:52;99004.41;;;37.80;30.57
35655;BME280;21773;50.010;19.972;2023-06-22T11:53:59;99009.28;;;38.01;32.19
35655;BME280;21773;50.010;19.972;2023-06-22T11:57:03;98999.63;;;38.30;31.20
35655;BME280;21773;50.010;19.972;2023-06-22T12:00:09;98993.19;;;38.33;30.94
35655;BME280;21773;50.010;19.972;2023-06-22T12:03:19;98993.59;;;38.14;30.45
35655;BME280;21773;50.010;19.972;2023-06-22T12:06:24;98985.09;;;37.61;30.91
35655;BME280;21773;50.010;19.972;2023-06-22T12:09:27;98987.81;;;37.29;32.06
35655;BME280;21773;50.010;19.972;2023-06-22T12:12:30;98987.38;;;37.20;32.58
35655;BME280;21773;50.010;19.972;2023-06-22T12:15:35;98992.28;;;37.34;31.33
35655;BME280;21773;50.010;19.972;2023-06-22T12:18:38;98986.31;;;37.63;31.93
35655;BME280;21773;50.010;19.972;2023-06-22T12:21:42;98984.75;;;37.87;31.04
35655;BME280;21773;50.010;19.972;2023-06-22T12:24:48;98982.31;;;37.93;31.09
35655;BME280;21773;50.010;19.972;2023-06-22T12:27:51;98989.56;;;37.90;31.04
35655;BME280;21773;50.010;19.972;2023-06-22T12:30:57;98989.13;;;37.70;31.31
35655;BME280;21773;50.010;19.972;2023-06-22T12:34:00;98979.03;;;37.48;31.72
35655;BME280;21773;50.010;19.972;2023-06-22T12:37:03;98969.31;;;37.21;32.06
35655;BME280;21773;50.010;19.972;2023-06-22T12:40:09;98969.63;;;37.05;32.65
35655;BME280;21773;50.010;19.972;2023-06-22T12:43:13;98963.47;;;36.64;31.93
35655;BME280;21773;50.010;19.972;2023-06-22T12:46:17;98963.38;;;36.57;33.50
35655;BME280;21773;50.010;19.972;2023-06-22T12:49:21;98953.03;;;36.68;32.56
35655;BME280;21773;50.010;19.972;2023-06-22T12:52:24;98955.09;;;36.85;32.49
35655;BME280;21773;50.010;19.972;2023-06-22T12:55:28;98949.47;;;36.75;32.29
35655;BME280;21773;50.010;19.972;2023-06-22T12:58:31;98943.38;;;36.66;33.02
35655;BME280;21773;50.010;19.972;2023-06-22T13:01:36;98946.13;;;36.55;33.02
35655;BME280;21773;50.010;19.972;2023-06-22T13:04:40;98949.25;;;36.39;33.79
35655;BME280;21773;50.010;19.972;2023-06-22T13:07:45;98937.50;;;36.23;33.24
35655;BME280;21773;50.010;19.972;2023-06-22T13:10:48;98939.00;;;36.10;33.44
35655;BME280;21773;50.010;19.972;2023-06-22T13:13:52;98930.03;;;35.90;33.89
35655;BME280;21773;50.010;19.972;2023-06-22T13:16:57;98933.13;;;35.78;34.25
35655;BME280;21773;50.010;19.972;2023-06-22T13:20:00;98930.97;;;35.61;33.61
35655;BME280;21773;50.010;19.972;2023-06-22T13:23:03;98930.84;;;35.47;34.84
35655;BME280;21773;50.010;19.972;2023-06-22T13:26:07;98929.47;;;35.71;35.51
35655;BME280;21773;50.010;19.972;2023-06-22T13:29:10;98934.94;;;36.00;33.64
35655;BME280;21773;50.010;19.972;2023-06-22T13:32:15;98916.22;;;36.19;32.43
35655;BME280;21773;50.010;19.972;2023-06-22T13:35:19;98919.50;;;36.28;33.22
35655;BME280;21773;50.010;19.972;2023-06-22T13:38:22;98924.53;;;36.08;32.89
35655;BME280;21773;50.010;19.972;2023-06-22T13:41:26;98923.97;;;36.36;33.86
35655;BME280;21773;50.010;19.972;2023-06-22T13:44:29;98916.38;;;36.43;33.26
35655;BME280;21773;50.010;19.972;2023-06-22T13:47:34;98918.72;;;36.34;33.02
35655;BME280;21773;50.010;19.972;2023-06-22T13:50:38;98909.06;;;36.28;33.33
35655;BME280;21773;50.010;19.972;2023-06-22T13:53:41;98916.31;;;36.33;33.70
35655;BME280;21773;50.010;19.972;2023-06-22T13:56:44;98917.94;;;36.34;33.21
35655;BME280;21773;50.010;19.972;2023-06-22T13:59:48;98921.47;;;36.20;33.60
35655;BME280;21773;50.010;19.972;2023-06-22T14:02:52;98885.25;;;36.08;33.13
35655;BME280;21773;50.010;19.972;2023-06-22T14:05:56;98912.50;;;36.08;33.37
35655;BME280;21773;50.010;19.972;2023-06-22T14:09:00;98911.59;;;35.93;33.82
35655;BME280;21773;50.010;19.972;2023-06-22T14:12:07;98904.25;;;35.74;34.02
35655;BME280;21773;50.010;19.972;2023-06-22T14:15:10;98909.81;;;35.67;33.82
35655;BME280;21773;50.010;19.972;2023-06-22T14:18:15;98910.97;;;35.62;34.37
35655;BME280;21773;50.010;19.972;2023-06-22T14:21:18;98907.06;;;35.74;34.67
35655;BME280;21773;50.010;19.972;2023-06-22T14:24:22;98907.56;;;35.87;34.30
35655;BME280;21773;50.010;19.972;2023-06-22T14:27:29;98903.16;;;35.89;33.38
35655;BME280;21773;50.010;19.972;2023-06-22T14:30:32;98903.84;;;35.72;34.36
35655;BME280;21773;50.010;19.972;2023-06-22T14:33:37;98904.91;;;35.60;34.44
35655;BME280;21773;50.010;19.972;2023-06-22T14:36:40;98900.47;;;35.56;34.13
35655;BME280;21773;50.010;19.972;2023-06-22T14:39:44;98893.34;;;35.22;34.82
35655;BME280;21773;50.010;19.972;2023-06-22T14:42:47;98899.59;;;35.08;35.38
35655;BME280;21773;50.010;19.972;2023-06-22T14:45:51;98902.75;;;35.06;35.37
35655;BME280;21773;50.010;19.972;2023-06-22T14:48:56;98895.66;;;35.16;35.21
35655;BME280;21773;50.010;19.972;2023-06-22T14:52:00;98893.31;;;35.18;35.69
35655;BME280;21773;50.010;19.972;2023-06-22T14:55:04;98892.41;;;35.10;34.76
35655;BME280;21773;50.010;19.972;2023-06-22T14:58:07;98890.38;;;35.07;35.41
35655;BME280;21773;50.010;19.972;2023-06-22T15:01:11;98888.22;;;34.94;35.68
35655;BME280;21773;50.010;19.972;2023-06-22T15:04:16;98891.31;;;34.85;35.48
35655;BME280;21773;50.010;19.972;2023-06-22T15:07:20;98886.84;;;34.77;35.85
35655;BME280;21773;50.010;19.972;2023-06-22T15:10:23;98888.66;;;34.66;35.80
35655;BME280;21773;50.010;19.972;2023-06-22T15:13:27;98881.00;;;34.59;36.00
35655;BME280;21773;50.010;19.972;2023-06-22T15:16:32;98870.16;;;34.58;36.28
35655;BME280;21773;50.010;19.972;2023-06-22T15:19:37;98871.66;;;34.48;35.98
35655;BME280;21773;50.010;19.972;2023-06-22T15:22:40;98871.94;;;34.40;36.61
35655;BME280;21773;50.010;19.972;2023-06-22T15:25:43;98874.31;;;34.38;36.67
35655;BME280;21773;50.010;19.972;2023-06-22T15:28:47;98858.47;;;34.19;36.19
35655;BME280;21773;50.010;19.972;2023-06-22T15:31:51;98860.47;;;34.18;36.45
35655;BME280;21773;50.010;19.972;2023-06-22T15:34:58;98875.13;;;34.12;36.28
35655;BME280;21773;50.010;19.972;2023-06-22T15:38:04;98870.41;;;34.16;36.63
35655;BME280;21773;50.010;19.972;2023-06-22T15:41:07;98873.53;;;34.11;36.79
35655;BME280;21773;50.010;19.972;2023-06-22T15:44:10;98878.00;;;34.15;36.96
35655;BME280;21773;50.010;19.972;2023-06-22T15:47:14;98879.13;;;34.11;36.72
35655;BME280;21773;50.010;19.972;2023-06-22T15:50:20;98877.19;;;34.15;36.52
35655;BME280;21773;50.010;19.972;2023-06-22T15:53:23;98880.03;;;34.18;36.32
35655;BME280;21773;50.010;19.972;2023-06-22T15:56:26;98885.19;;;34.16;36.48
35655;BME280;21773;50.010;19.972;2023-06-22T15:59:30;98868.38;;;34.16;36.99
35655;BME280;21773;50.010;19.972;2023-06-22T16:02:34;98868.78;;;34.15;36.71
35655;BME280;21773;50.010;19.972;2023-06-22T16:05:39;98870.47;;;33.93;36.59